Nicolin — ZJL7474 — position and weather

sailwx.info

Track history (hours):
 
Tides and Currents Weather Stations Pressure Air Temp Water Temp Dewpoint Dewpoint Depression Visibility Wind Speed Wind Dir Waves Ship Positions

Nicolin

Last reported at 2018-Jul-17 05:19 UTC. Time now 2018-Jul-17 05:32 UTC.
Position N 25°53' W 080°08'.

Length 11 m.

Type: Pleasure craft. MMSI: 378111106.

Date/timePositionNaut miles runAvg speedWind from/ knotsBaromVisibWave heightAir tempDewpointWater temp
2018-Jul-17 05:19N 25°53' W 080°08'0 0.0
2018-Jul-17 04:31N 25°53' W 080°08'0 0.0
2018-Jul-17 04:19N 25°53' W 080°08'0 0.0
2018-Jul-17 03:49N 25°53' W 080°08'0 0.0
2018-Jul-17 03:19N 25°53' W 080°08'0 0.0
2018-Jul-17 02:49N 25°53' W 080°08'0 0.0
2018-Jul-17 02:25N 25°53' W 080°08'0 0.0
2018-Jul-17 01:55N 25°53' W 080°08'0 0.0
2018-Jul-17 01:25N 25°53' W 080°08'0 0.0
2018-Jul-17 00:55N 25°53' W 080°08'0 0.0
2018-Jul-17 00:25N 25°53' W 080°08'0 0.0
2018-Jul-16 23:25N 25°53' W 080°08'0 0.0
2018-Jul-16 22:55N 25°53' W 080°08'0 0.0
2018-Jul-16 22:25N 25°53' W 080°08'0 0.0
2018-Jul-16 21:43N 25°53' W 080°08'0 0.0
2018-Jul-16 21:13N 25°53' W 080°08'0 0.0
2018-Jul-16 20:55N 25°53' W 080°08'0 0.0
2018-Jul-16 20:25N 25°53' W 080°08'0 0.0
2018-Jul-16 19:31N 25°53' W 080°08'0 0.0
2018-Jul-16 19:13N 25°53' W 080°08'0 0.0
2018-Jul-16 18:43N 25°53' W 080°08'0 0.0
2018-Jul-16 18:28N 25°53' W 080°08'0 0.0
2018-Jul-16 17:49N 25°53' W 080°08'0 0.0
2018-Jul-16 17:28N 25°53' W 080°08'0 0.0
2018-Jul-16 16:49N 25°53' W 080°08'0 0.0
2018-Jul-16 16:19N 25°53' W 080°08'0 0.0
2018-Jul-16 15:55N 25°53' W 080°08'0 0.0
2018-Jul-16 15:25N 25°53' W 080°08'0 0.0
2018-Jul-16 14:55N 25°53' W 080°08'0 0.0
2018-Jul-16 14:25N 25°53' W 080°08'0 0.0
2018-Jul-16 13:52N 25°53' W 080°08'0 0.0
2018-Jul-16 13:22N 25°53' W 080°08'0 0.0
2018-Jul-16 12:55N 25°53' W 080°08'0 0.0
2018-Jul-16 12:22N 25°53' W 080°08'0 0.0
2018-Jul-16 11:55N 25°53' W 080°08'0 0.0
2018-Jul-16 10:49N 25°53' W 080°08'0 0.0
2018-Jul-16 10:25N 25°53' W 080°08'0 0.0
2018-Jul-16 09:58N 25°53' W 080°08'0 0.0
2018-Jul-16 09:13N 25°53' W 080°08'0 0.0
2018-Jul-16 08:55N 25°53' W 080°08'0 0.0
2018-Jul-16 08:25N 25°53' W 080°08'0 0.0
2018-Jul-16 07:58N 25°53' W 080°08'0 0.0
2018-Jul-16 07:25N 25°53' W 080°08'0 0.0
2018-Jul-16 06:55N 25°53' W 080°08'0 0.0
2018-Jul-16 06:22N 25°53' W 080°08'0 0.0
2018-Jul-16 05:43N 25°53' W 080°08'0 0.0
2018-Jul-16 05:28N 25°53' W 080°08'0 0.0
2018-Jul-16 04:58N 25°53' W 080°08'0 0.0
2018-Jul-16 04:01N 25°53' W 080°08'0 0.0
2018-Jul-16 03:58N 25°53' W 080°08'0 0.0
2018-Jul-16 03:19N 25°53' W 080°08'0 0.0
2018-Jul-16 02:49N 25°53' W 080°08'0 0.0
2018-Jul-16 02:19N 25°53' W 080°08'0 0.0
2018-Jul-16 01:49N 25°53' W 080°08'0 0.0
2018-Jul-16 01:19N 25°53' W 080°08'0 0.0
2018-Jul-16 00:49N 25°53' W 080°08'0 0.0
2018-Jul-16 00:28N 25°53' W 080°08'0 0.0
2018-Jul-15 23:58N 25°53' W 080°08'0 0.0
2018-Jul-15 23:19N 25°53' W 080°08'0 0.0
2018-Jul-15 22:55N 25°53' W 080°08'0 0.0
2018-Jul-15 22:19N 25°53' W 080°08'0 0.0
2018-Jul-15 21:55N 25°53' W 080°08'0 0.0
2018-Jul-15 21:25N 25°53' W 080°08'0 0.0
2018-Jul-15 20:31N 25°53' W 080°08'0 0.0
2018-Jul-15 20:22N 25°53' W 080°08'0 0.3
2018-Jul-15 19:57N 25°53' W 080°08'2 3.6
2018-Jul-15 19:30N 25°54' W 080°08'918.9
2018-Jul-15 19:00N 25°48' W 080°00'5 9.3
2018-Jul-15 18:29N 25°44' W 079°58'9 2.2
2018-Jul-15 14:25N 25°42' W 080°08'1227.7
2018-Jul-15 13:59N 25°54' W 080°08'1 2.9
2018-Jul-15 13:29N 25°53' W 080°09'  
Track history (hours):
 
Tides and Currents Weather Stations Pressure Air Temp Water Temp Dewpoint Dewpoint Depression Visibility Wind Speed Wind Dir Waves Ship Positions

Nicolin

Last reported at 2018-Jul-17 05:19 UTC. Time now 2018-Jul-17 05:32 UTC.
Position N 25°53' W 080°08'.

Length 11 m.

Type: Pleasure craft. MMSI: 378111106.

Date/timePositionNaut miles runAvg speedWind from/ knotsBaromVisibWave heightAir tempDewpointWater temp
2018-Jul-17 05:19N 25°53' W 080°08'0 0.0
2018-Jul-17 04:31N 25°53' W 080°08'0 0.0
2018-Jul-17 04:19N 25°53' W 080°08'0 0.0
2018-Jul-17 03:49N 25°53' W 080°08'0 0.0
2018-Jul-17 03:19N 25°53' W 080°08'0 0.0
2018-Jul-17 02:49N 25°53' W 080°08'0 0.0
2018-Jul-17 02:25N 25°53' W 080°08'0 0.0
2018-Jul-17 01:55N 25°53' W 080°08'0 0.0
2018-Jul-17 01:25N 25°53' W 080°08'0 0.0
2018-Jul-17 00:55N 25°53' W 080°08'0 0.0
2018-Jul-17 00:25N 25°53' W 080°08'0 0.0
2018-Jul-16 23:25N 25°53' W 080°08'0 0.0
2018-Jul-16 22:55N 25°53' W 080°08'0 0.0
2018-Jul-16 22:25N 25°53' W 080°08'0 0.0
2018-Jul-16 21:43N 25°53' W 080°08'0 0.0
2018-Jul-16 21:13N 25°53' W 080°08'0 0.0
2018-Jul-16 20:55N 25°53' W 080°08'0 0.0
2018-Jul-16 20:25N 25°53' W 080°08'0 0.0
2018-Jul-16 19:31N 25°53' W 080°08'0 0.0
2018-Jul-16 19:13N 25°53' W 080°08'0 0.0
2018-Jul-16 18:43N 25°53' W 080°08'0 0.0
2018-Jul-16 18:28N 25°53' W 080°08'0 0.0
2018-Jul-16 17:49N 25°53' W 080°08'0 0.0
2018-Jul-16 17:28N 25°53' W 080°08'0 0.0
2018-Jul-16 16:49N 25°53' W 080°08'0 0.0
2018-Jul-16 16:19N 25°53' W 080°08'0 0.0
2018-Jul-16 15:55N 25°53' W 080°08'0 0.0
2018-Jul-16 15:25N 25°53' W 080°08'0 0.0
2018-Jul-16 14:55N 25°53' W 080°08'0 0.0
2018-Jul-16 14:25N 25°53' W 080°08'0 0.0
2018-Jul-16 13:52N 25°53' W 080°08'0 0.0
2018-Jul-16 13:22N 25°53' W 080°08'0 0.0
2018-Jul-16 12:55N 25°53' W 080°08'0 0.0
2018-Jul-16 12:22N 25°53' W 080°08'0 0.0
2018-Jul-16 11:55N 25°53' W 080°08'0 0.0
2018-Jul-16 10:49N 25°53' W 080°08'0 0.0
2018-Jul-16 10:25N 25°53' W 080°08'0 0.0
2018-Jul-16 09:58N 25°53' W 080°08'0 0.0
2018-Jul-16 09:13N 25°53' W 080°08'0 0.0
2018-Jul-16 08:55N 25°53' W 080°08'0 0.0
2018-Jul-16 08:25N 25°53' W 080°08'0 0.0
2018-Jul-16 07:58N 25°53' W 080°08'0 0.0
2018-Jul-16 07:25N 25°53' W 080°08'0 0.0
2018-Jul-16 06:55N 25°53' W 080°08'0 0.0
2018-Jul-16 06:22N 25°53' W 080°08'0 0.0
2018-Jul-16 05:43N 25°53' W 080°08'0 0.0
2018-Jul-16 05:28N 25°53' W 080°08'0 0.0
2018-Jul-16 04:58N 25°53' W 080°08'0 0.0
2018-Jul-16 04:01N 25°53' W 080°08'0 0.0
2018-Jul-16 03:58N 25°53' W 080°08'0 0.0
2018-Jul-16 03:19N 25°53' W 080°08'0 0.0
2018-Jul-16 02:49N 25°53' W 080°08'0 0.0
2018-Jul-16 02:19N 25°53' W 080°08'0 0.0
2018-Jul-16 01:49N 25°53' W 080°08'0 0.0
2018-Jul-16 01:19N 25°53' W 080°08'0 0.0
2018-Jul-16 00:49N 25°53' W 080°08'0 0.0
2018-Jul-16 00:28N 25°53' W 080°08'0 0.0
2018-Jul-15 23:58N 25°53' W 080°08'0 0.0
2018-Jul-15 23:19N 25°53' W 080°08'0 0.0
2018-Jul-15 22:55N 25°53' W 080°08'0 0.0
2018-Jul-15 22:19N 25°53' W 080°08'0 0.0
2018-Jul-15 21:55N 25°53' W 080°08'0 0.0
2018-Jul-15 21:25N 25°53' W 080°08'0 0.0
2018-Jul-15 20:31N 25°53' W 080°08'0 0.0
2018-Jul-15 20:22N 25°53' W 080°08'0 0.3
2018-Jul-15 19:57N 25°53' W 080°08'2 3.6
2018-Jul-15 19:30N 25°54' W 080°08'918.9
2018-Jul-15 19:00N 25°48' W 080°00'5 9.3
2018-Jul-15 18:29N 25°44' W 079°58'9 2.2
2018-Jul-15 14:25N 25°42' W 080°08'1227.7
2018-Jul-15 13:59N 25°54' W 080°08'1 2.9
2018-Jul-15 13:29N 25°53' W 080°09'  

Dump ship's entire track history